createdAt,value
2022-10-03T00:01:17.833Z,84.70
2022-10-03T00:03:51.128Z,84.70
2022-10-03T00:06:26.015Z,84.50
2022-10-03T00:09:08.879Z,84.50
2022-10-03T00:11:42.524Z,84.40
2022-10-03T00:14:13.704Z,85.00
2022-10-03T00:16:44.638Z,84.90
2022-10-03T00:19:17.741Z,85.00
2022-10-03T00:21:51.738Z,84.90
2022-10-03T00:24:24.193Z,84.90
2022-10-03T00:26:54.764Z,84.90
2022-10-03T00:29:28.017Z,84.90
2022-10-03T00:31:59.760Z,84.90
2022-10-03T00:34:33.425Z,85.00
2022-10-03T00:37:13.852Z,84.80
2022-10-03T00:39:46.846Z,84.80
2022-10-03T00:42:26.343Z,84.90
2022-10-03T00:45:12.623Z,84.90
2022-10-03T00:48:01.387Z,84.80
2022-10-03T00:50:46.857Z,84.90
2022-10-03T00:53:21.512Z,84.70
2022-10-03T00:55:58.531Z,84.70
2022-10-03T00:58:33.468Z,84.70
2022-10-03T01:01:21.121Z,84.60
2022-10-03T01:03:55.049Z,84.60
2022-10-03T01:06:31.246Z,84.60
2022-10-03T01:09:13.451Z,84.70
2022-10-03T01:11:54.057Z,84.80
2022-10-03T01:14:27.914Z,84.90
2022-10-03T01:17:00.721Z,85.00
2022-10-03T01:19:33.039Z,84.80
2022-10-03T01:22:14.444Z,84.70
2022-10-03T01:24:53.730Z,84.70
2022-10-03T01:27:26.399Z,84.60
2022-10-03T01:30:15.251Z,84.70
2022-10-03T01:32:48.716Z,84.80
2022-10-03T01:35:22.455Z,85.00
2022-10-03T01:37:55.321Z,85.10
2022-10-03T01:40:27.170Z,85.30
2022-10-03T01:43:02.198Z,84.70
2022-10-03T01:45:37.409Z,85.10
2022-10-03T01:48:07.773Z,85.10
2022-10-03T01:50:38.464Z,85.00
2022-10-03T01:53:09.913Z,85.00
2022-10-03T01:55:55.388Z,85.00
2022-10-03T01:58:27.247Z,85.10
2022-10-03T02:01:00.475Z,85.20
2022-10-03T02:03:30.876Z,84.80
2022-10-03T02:06:02.014Z,84.90
2022-10-03T02:08:36.536Z,85.10
2022-10-03T02:11:08.105Z,85.20
2022-10-03T02:13:42.273Z,85.20
2022-10-03T02:16:15.429Z,85.10
2022-10-03T02:18:46.143Z,85.10
2022-10-03T02:21:16.724Z,85.00
2022-10-03T02:23:46.133Z,84.80
2022-10-03T02:26:34.974Z,84.70
2022-10-03T02:29:24.191Z,84.70
2022-10-03T02:32:10.802Z,84.80
2022-10-03T02:35:00.014Z,84.80
2022-10-03T02:37:46.532Z,84.70
2022-10-03T02:40:42.154Z,84.70
2022-10-03T02:43:26.423Z,84.70
2022-10-03T02:46:11.882Z,84.60
2022-10-03T02:48:48.297Z,85.10
2022-10-03T02:51:26.742Z,85.00
2022-10-03T02:54:23.091Z,85.10
2022-10-03T02:57:12.507Z,85.00
2022-10-03T02:59:58.007Z,85.00
2022-10-03T03:02:35.437Z,85.00
2022-10-03T03:05:20.976Z,84.70
2022-10-03T03:07:59.262Z,84.80
2022-10-03T03:10:44.049Z,84.90
2022-10-03T03:13:32.987Z,84.80
2022-10-03T03:16:33.122Z,84.80
2022-10-03T03:19:13.498Z,84.80
2022-10-03T03:21:43.374Z,84.70
2022-10-03T03:24:18.021Z,84.70
2022-10-03T03:26:56.988Z,84.90
2022-10-03T03:29:32.192Z,85.10
2022-10-03T03:32:03.773Z,85.10
2022-10-03T03:34:35.000Z,85.10
2022-10-03T03:37:05.397Z,85.10
2022-10-03T03:39:43.721Z,85.00
2022-10-03T03:42:24.097Z,85.00
2022-10-03T03:44:58.377Z,85.00
2022-10-03T03:47:31.501Z,85.00
2022-10-03T03:50:12.652Z,84.90
2022-10-03T03:52:47.180Z,85.00
2022-10-03T03:55:24.273Z,85.00
2022-10-03T03:57:59.962Z,85.00
2022-10-03T04:00:32.971Z,85.00
2022-10-03T04:03:07.544Z,85.00
2022-10-03T04:05:43.158Z,85.00
2022-10-03T04:08:27.148Z,85.00
2022-10-03T04:11:00.987Z,85.10
2022-10-03T04:13:36.781Z,84.90
2022-10-03T04:16:17.376Z,84.80
2022-10-03T04:18:57.952Z,84.70
2022-10-03T04:21:42.465Z,84.70
2022-10-03T04:24:25.333Z,84.70
2022-10-03T04:27:04.410Z,84.90
2022-10-03T04:29:47.177Z,85.10
2022-10-03T04:32:24.740Z,85.20
2022-10-03T04:35:00.906Z,85.30
2022-10-03T04:37:33.715Z,85.30
2022-10-03T04:40:09.485Z,85.20
2022-10-03T04:42:43.487Z,85.20
2022-10-03T04:45:28.739Z,85.20
2022-10-03T04:48:00.286Z,85.20
2022-10-03T04:50:32.688Z,85.30
2022-10-03T04:53:11.783Z,85.30
2022-10-03T04:55:42.012Z,85.30
2022-10-03T04:58:16.734Z,84.80
2022-10-03T05:00:52.855Z,84.90
2022-10-03T05:03:24.912Z,84.80
2022-10-03T05:05:56.080Z,84.80
2022-10-03T05:08:28.836Z,84.80
2022-10-03T05:11:12.298Z,84.80
2022-10-03T05:13:47.222Z,84.80
2022-10-03T05:16:23.225Z,84.90
2022-10-03T05:18:54.107Z,84.90
2022-10-03T05:21:30.058Z,85.00
2022-10-03T05:24:03.702Z,85.00
2022-10-03T05:26:44.914Z,85.00
2022-10-03T05:29:17.017Z,85.00
2022-10-03T05:31:50.096Z,84.90
2022-10-03T05:34:24.828Z,84.90
2022-10-03T05:37:08.512Z,84.80
2022-10-03T05:39:41.542Z,84.70
2022-10-03T05:42:22.996Z,84.60
2022-10-03T05:44:58.665Z,85.00
2022-10-03T05:47:49.197Z,85.10
2022-10-03T05:50:41.508Z,85.10
2022-10-03T05:53:18.491Z,85.10
2022-10-03T05:55:55.205Z,84.90
2022-10-03T05:58:37.895Z,84.80
2022-10-03T06:01:19.181Z,84.70
2022-10-03T06:04:05.935Z,84.70
2022-10-03T06:06:35.913Z,84.80
2022-10-03T06:09:30.600Z,85.10
2022-10-03T06:12:10.171Z,85.10
2022-10-03T06:14:52.977Z,85.20
2022-10-03T06:17:42.341Z,84.60
2022-10-03T06:20:29.746Z,84.70
2022-10-03T06:23:23.003Z,84.70
2022-10-03T06:26:06.997Z,84.80
2022-10-03T06:29:03.339Z,84.90
2022-10-03T06:31:49.817Z,85.00
2022-10-03T06:34:32.635Z,84.80
2022-10-03T06:37:09.232Z,84.80
2022-10-03T06:40:07.467Z,84.90
2022-10-03T06:42:44.928Z,84.90
2022-10-03T06:45:30.978Z,84.60
2022-10-03T06:48:05.835Z,84.60
2022-10-03T06:50:42.052Z,84.80
2022-10-03T06:53:15.960Z,84.90
2022-10-03T06:55:58.214Z,84.60
2022-10-03T06:58:42.073Z,84.50
2022-10-03T07:01:27.295Z,84.70
2022-10-03T07:04:04.892Z,84.60
2022-10-03T07:06:54.737Z,84.70
2022-10-03T07:09:37.532Z,85.10
2022-10-03T07:12:24.131Z,85.30
2022-10-03T07:15:00.766Z,85.20
2022-10-03T07:17:41.753Z,84.80
2022-10-03T07:20:33.711Z,84.90
2022-10-03T07:23:19.598Z,85.10
2022-10-03T07:26:06.760Z,85.50
2022-10-03T07:28:48.699Z,86.00
2022-10-03T07:31:22.514Z,86.40
2022-10-03T07:34:14.621Z,86.50
2022-10-03T07:37:27.114Z,86.50
2022-10-03T07:40:08.527Z,85.60
2022-10-03T07:42:47.873Z,84.20
2022-10-03T07:45:34.485Z,84.30
2022-10-03T07:48:26.871Z,85.40
2022-10-03T07:51:01.330Z,85.80
2022-10-03T07:53:42.125Z,84.20
2022-10-03T07:56:17.650Z,83.80
2022-10-03T07:58:53.062Z,84.40
2022-10-03T08:01:39.857Z,84.20
2022-10-03T08:04:26.070Z,84.80
2022-10-03T08:07:02.349Z,84.20
2022-10-03T08:09:42.704Z,84.40
2022-10-03T08:12:34.665Z,83.80
2022-10-03T08:15:07.068Z,81.40
2022-10-03T08:17:52.789Z,78.20
2022-10-03T08:20:35.356Z,72.70
2022-10-03T08:23:15.625Z,70.20
2022-10-03T08:25:55.328Z,70.80
2022-10-03T08:28:35.354Z,69.00
2022-10-03T08:31:16.647Z,67.90
2022-10-03T08:33:55.454Z,66.00
2022-10-03T08:36:42.584Z,67.30
2022-10-03T08:39:23.954Z,65.70
2022-10-03T08:42:15.878Z,64.60
2022-10-03T08:44:54.563Z,64.60
2022-10-03T08:47:43.624Z,63.40
2022-10-03T08:50:29.445Z,59.20
2022-10-03T08:53:13.063Z,58.10
2022-10-03T08:55:52.885Z,56.50
2022-10-03T08:58:32.491Z,57.80
2022-10-03T09:01:11.664Z,56.30
2022-10-03T09:03:54.461Z,55.10
2022-10-03T09:06:58.729Z,55.70
2022-10-03T09:09:39.356Z,57.80
2022-10-03T09:12:19.115Z,54.40
2022-10-03T09:15:02.957Z,53.30
2022-10-03T09:17:49.379Z,50.90
2022-10-03T09:20:27.941Z,46.70
2022-10-03T09:23:03.125Z,44.60
2022-10-03T09:25:40.675Z,47.20
2022-10-03T09:28:29.371Z,46.50
2022-10-03T09:31:07.012Z,47.60
2022-10-03T09:33:55.218Z,46.10
2022-10-03T09:36:53.566Z,44.70
2022-10-03T09:39:39.504Z,43.60
2022-10-03T09:42:25.971Z,45.50
2022-10-03T09:45:14.144Z,45.40
2022-10-03T09:47:59.841Z,44.00
2022-10-03T09:50:51.985Z,41.50
2022-10-03T09:53:32.258Z,41.70
2022-10-03T09:56:14.086Z,43.60
2022-10-03T09:58:53.227Z,41.10
2022-10-03T10:01:27.229Z,40.30
2022-10-03T10:04:10.366Z,39.60
2022-10-03T10:06:47.191Z,42.00
2022-10-03T10:09:23.851Z,39.90
2022-10-03T10:12:02.980Z,39.70
2022-10-03T10:14:52.731Z,39.20
2022-10-03T10:17:45.026Z,37.80
2022-10-03T10:20:34.255Z,41.00
2022-10-03T10:23:21.766Z,45.50
2022-10-03T10:26:16.689Z,46.20
2022-10-03T10:29:02.172Z,48.00
2022-10-03T10:31:52.421Z,49.70
2022-10-03T10:34:38.959Z,51.30
2022-10-03T10:37:19.184Z,53.80
2022-10-03T10:40:02.166Z,57.60
2022-10-03T10:42:49.589Z,56.30
2022-10-03T10:45:48.402Z,55.60
2022-10-03T10:48:31.184Z,56.30
2022-10-03T10:51:11.971Z,55.60
2022-10-03T10:54:12.322Z,56.60
2022-10-03T10:57:10.607Z,55.70
2022-10-03T11:00:05.215Z,58.30
2022-10-03T11:02:48.916Z,59.70
2022-10-03T11:05:34.336Z,59.50
2022-10-03T11:08:20.645Z,56.70
2022-10-03T11:10:59.525Z,55.50
2022-10-03T11:13:46.349Z,51.70
2022-10-03T11:16:49.126Z,48.60
2022-10-03T11:19:47.971Z,44.00
2022-10-03T11:22:43.508Z,40.50
2022-10-03T11:25:32.329Z,39.80
2022-10-03T11:28:20.059Z,37.70
2022-10-03T11:31:10.481Z,36.60
2022-10-03T11:33:53.960Z,38.10
2022-10-03T11:36:45.763Z,37.70
2022-10-03T11:39:17.088Z,35.80
2022-10-03T11:41:48.398Z,35.30
2022-10-03T11:44:22.096Z,36.20
2022-10-03T11:47:14.010Z,37.00
2022-10-03T11:49:51.739Z,35.90
2022-10-03T11:52:27.823Z,37.20
2022-10-03T11:55:03.845Z,39.20
2022-10-03T11:57:33.471Z,40.60
2022-10-03T12:00:05.090Z,40.90
2022-10-03T12:02:54.271Z,42.20
2022-10-03T12:05:29.001Z,45.10
2022-10-03T12:08:21.437Z,44.90
2022-10-03T12:10:53.683Z,47.00
2022-10-03T12:13:24.213Z,49.20
2022-10-03T12:15:54.279Z,52.10
2022-10-03T12:18:32.019Z,54.40
2022-10-03T12:21:12.360Z,54.40
2022-10-03T12:24:00.941Z,58.10
2022-10-03T12:26:34.662Z,57.80
2022-10-03T12:29:03.838Z,58.20
2022-10-03T12:31:36.062Z,58.50
2022-10-03T12:34:13.568Z,57.80
2022-10-03T12:36:49.265Z,57.80
2022-10-03T12:39:25.339Z,57.80
2022-10-03T12:41:58.698Z,57.20
2022-10-03T12:44:34.916Z,57.10
2022-10-03T12:47:09.172Z,56.10
2022-10-03T12:49:44.288Z,56.30
2022-10-03T12:52:21.748Z,56.10
2022-10-03T12:54:52.803Z,57.30
2022-10-03T12:57:39.457Z,57.60
2022-10-03T13:00:11.089Z,57.60
2022-10-03T13:02:41.930Z,57.40
2022-10-03T13:05:30.702Z,56.80
2022-10-03T13:08:03.378Z,57.30
2022-10-03T13:10:37.024Z,57.10
2022-10-03T13:13:13.229Z,57.60
2022-10-03T13:15:45.357Z,59.10
2022-10-03T13:18:20.599Z,58.50
2022-10-03T13:20:52.172Z,58.80
2022-10-03T13:23:24.562Z,58.10
2022-10-03T13:25:59.376Z,58.40
2022-10-03T13:28:31.383Z,57.80
2022-10-03T13:31:03.729Z,56.80
2022-10-03T13:33:34.135Z,54.80
2022-10-03T13:36:10.667Z,54.00
2022-10-03T13:39:00.001Z,53.20
2022-10-03T13:41:30.695Z,53.20
2022-10-03T13:44:01.455Z,53.50
2022-10-03T13:46:33.082Z,53.40
2022-10-03T13:49:02.729Z,55.30
2022-10-03T13:51:39.598Z,54.70
2022-10-03T13:54:11.111Z,55.40
2022-10-03T13:56:42.016Z,55.10
2022-10-03T13:59:17.114Z,55.00
2022-10-03T14:01:50.217Z,56.10
2022-10-03T14:04:36.700Z,54.90
2022-10-03T14:07:08.844Z,56.60
2022-10-03T14:09:44.435Z,57.50
2022-10-03T14:12:28.190Z,58.40
2022-10-03T14:15:18.105Z,59.00
2022-10-03T14:17:50.940Z,58.80
2022-10-03T14:20:23.603Z,59.70
2022-10-03T14:22:58.068Z,60.70
2022-10-03T14:25:30.402Z,61.40
2022-10-03T14:28:02.181Z,62.10
2022-10-03T14:30:33.003Z,61.70
2022-10-03T14:33:05.117Z,62.30
2022-10-03T14:35:39.035Z,63.10
2022-10-03T14:38:14.597Z,63.90
2022-10-03T14:40:47.542Z,64.10
2022-10-03T14:43:22.334Z,63.80
2022-10-03T14:45:52.982Z,63.90
2022-10-03T14:48:23.155Z,63.40
2022-10-03T14:50:52.613Z,63.20
2022-10-03T14:53:23.926Z,63.20
2022-10-03T14:55:57.833Z,63.80
2022-10-03T14:58:29.389Z,64.00
2022-10-03T15:01:03.292Z,63.00
2022-10-03T15:03:37.995Z,63.10
2022-10-03T15:06:20.253Z,63.20
2022-10-03T15:08:49.790Z,63.60
2022-10-03T15:11:23.928Z,63.50
2022-10-03T15:13:52.492Z,63.60
2022-10-03T15:16:22.427Z,63.40
2022-10-03T15:18:53.137Z,63.80
2022-10-03T15:21:22.149Z,63.00
2022-10-03T15:23:55.522Z,62.00
2022-10-03T15:26:26.167Z,61.40
2022-10-03T15:28:57.063Z,60.30
2022-10-03T15:31:30.128Z,60.90
2022-10-03T15:33:59.140Z,60.30
2022-10-03T15:36:29.080Z,60.20
2022-10-03T15:39:00.657Z,60.80
2022-10-03T15:41:38.873Z,58.80
2022-10-03T15:44:11.483Z,59.00
2022-10-03T15:46:44.486Z,59.20
2022-10-03T15:49:19.820Z,60.00
2022-10-03T15:51:49.076Z,58.80
2022-10-03T15:54:20.972Z,58.60
2022-10-03T15:56:53.113Z,57.70
2022-10-03T15:59:22.098Z,57.90
2022-10-03T16:01:52.758Z,58.50
2022-10-03T16:04:22.107Z,58.40
2022-10-03T16:06:57.807Z,58.70
2022-10-03T16:09:27.913Z,59.30
2022-10-03T16:12:01.994Z,59.10
2022-10-03T16:14:31.655Z,59.30
2022-10-03T16:17:00.929Z,60.10
2022-10-03T16:19:32.371Z,59.30
2022-10-03T16:22:09.016Z,59.80
2022-10-03T16:24:41.983Z,60.70
2022-10-03T16:27:18.265Z,62.30
2022-10-03T16:29:50.165Z,62.90
2022-10-03T16:32:19.555Z,63.40
2022-10-03T16:34:48.120Z,64.80
2022-10-03T16:37:21.233Z,65.50
2022-10-03T16:39:54.433Z,66.30
2022-10-03T16:42:26.037Z,67.00
2022-10-03T16:44:55.524Z,67.40
2022-10-03T16:47:30.265Z,67.60
2022-10-03T16:50:16.617Z,67.90
2022-10-03T16:52:46.756Z,68.40
2022-10-03T16:55:17.012Z,68.60
2022-10-03T16:57:48.144Z,68.80
2022-10-03T17:00:18.732Z,69.20
2022-10-03T17:02:47.429Z,69.70
2022-10-03T17:05:16.105Z,70.20
2022-10-03T17:07:45.370Z,70.80
2022-10-03T17:10:30.057Z,71.20
2022-10-03T17:13:03.557Z,71.50
2022-10-03T17:15:33.917Z,71.90
2022-10-03T17:18:09.096Z,72.20
2022-10-03T17:20:41.017Z,72.70
2022-10-03T17:23:12.667Z,73.50
2022-10-03T17:25:44.743Z,74.10
2022-10-03T17:28:16.742Z,74.20
2022-10-03T17:30:48.022Z,74.30
2022-10-03T17:33:20.172Z,74.40
2022-10-03T17:35:55.001Z,74.90
2022-10-03T17:41:22.369Z,75.50
2022-10-03T17:44:00.593Z,75.60
2022-10-03T17:46:31.580Z,75.80
2022-10-03T17:49:03.677Z,76.10
2022-10-03T17:51:37.662Z,76.20
2022-10-03T17:54:07.650Z,76.10
2022-10-03T17:56:36.013Z,76.20
2022-10-03T17:59:09.076Z,76.60
2022-10-03T18:01:40.495Z,77.30
2022-10-03T18:04:15.733Z,77.70
2022-10-03T18:06:47.822Z,78.20
2022-10-03T18:09:31.610Z,78.30
2022-10-03T18:12:09.720Z,78.60
2022-10-03T18:14:48.209Z,78.90
2022-10-03T18:17:18.258Z,79.10
2022-10-03T18:19:56.246Z,79.50
2022-10-03T18:22:28.420Z,79.40
2022-10-03T18:24:57.675Z,79.30
2022-10-03T18:27:35.671Z,79.90
2022-10-03T18:30:06.625Z,80.10
2022-10-03T18:32:37.638Z,80.10
2022-10-03T18:35:12.936Z,80.00
2022-10-03T18:38:04.715Z,80.10
2022-10-03T18:40:35.781Z,80.20
2022-10-03T18:43:05.965Z,80.50
2022-10-03T18:45:38.295Z,80.80
2022-10-03T18:48:09.275Z,80.90
2022-10-03T18:50:45.451Z,81.00
2022-10-03T18:53:17.124Z,81.50
2022-10-03T18:55:46.452Z,81.60
2022-10-03T18:58:19.020Z,81.50
2022-10-03T19:00:52.053Z,81.50
2022-10-03T19:03:21.945Z,81.50
2022-10-03T19:05:52.746Z,81.60
2022-10-03T19:08:24.282Z,81.40
2022-10-03T19:10:53.965Z,81.40
2022-10-03T19:13:26.555Z,81.80
2022-10-03T19:16:24.694Z,81.90
2022-10-03T19:18:58.281Z,81.90
2022-10-03T19:21:26.857Z,82.00
2022-10-03T19:23:59.684Z,82.10
2022-10-03T19:26:33.545Z,82.20
2022-10-03T19:29:05.580Z,82.10
2022-10-03T19:31:37.002Z,82.20
2022-10-03T19:34:07.829Z,82.40
2022-10-03T19:36:37.909Z,82.50
2022-10-03T19:39:06.364Z,82.60
2022-10-03T19:41:37.596Z,82.40
2022-10-03T19:44:07.799Z,82.40
2022-10-03T19:46:50.912Z,82.50
2022-10-03T19:49:27.935Z,82.60
2022-10-03T19:52:10.956Z,82.50
2022-10-03T19:54:45.076Z,82.70
2022-10-03T19:57:15.726Z,82.80
2022-10-03T19:59:45.668Z,82.70
2022-10-03T20:02:13.873Z,82.60
2022-10-03T20:04:43.226Z,82.50
2022-10-03T20:07:13.141Z,82.80
2022-10-03T20:09:42.425Z,83.00
2022-10-03T20:12:11.297Z,83.10
2022-10-03T20:14:41.921Z,83.00
2022-10-03T20:17:13.066Z,83.00
2022-10-03T20:19:54.286Z,82.90
2022-10-03T20:22:23.036Z,82.90
2022-10-03T20:24:50.879Z,82.90
2022-10-03T20:27:25.607Z,83.20
2022-10-03T20:29:57.642Z,83.10
2022-10-03T20:32:25.790Z,83.10
2022-10-03T20:34:56.198Z,83.10
2022-10-03T20:37:30.450Z,83.40
2022-10-03T20:40:06.040Z,83.30
2022-10-03T20:42:34.284Z,83.10
2022-10-03T20:45:03.299Z,83.00
2022-10-03T20:47:38.270Z,83.20
2022-10-03T20:50:11.685Z,83.40
2022-10-03T20:52:39.765Z,83.40
2022-10-03T20:55:09.260Z,83.40
2022-10-03T20:57:39.096Z,83.50
2022-10-03T21:00:09.976Z,83.30
2022-10-03T21:02:42.355Z,83.30
2022-10-03T21:05:15.903Z,83.40
2022-10-03T21:07:47.342Z,83.60
2022-10-03T21:10:19.157Z,83.70
2022-10-03T21:12:48.798Z,83.70
2022-10-03T21:15:22.426Z,83.90
2022-10-03T21:17:50.890Z,83.70
2022-10-03T21:20:23.623Z,83.60
2022-10-03T21:29:32.677Z,83.50
2022-10-03T21:32:07.409Z,83.60
2022-10-03T21:34:41.408Z,83.70
2022-10-03T21:37:16.904Z,83.70
2022-10-03T21:39:51.246Z,83.60
2022-10-03T21:42:22.883Z,83.40
2022-10-03T21:45:01.059Z,83.40
2022-10-03T21:47:34.253Z,83.60
2022-10-03T21:50:03.113Z,83.70
2022-10-03T21:52:36.248Z,83.70
2022-10-03T21:55:10.230Z,83.80
2022-10-03T21:57:47.024Z,83.80
2022-10-03T22:00:15.689Z,83.70
2022-10-03T22:02:52.507Z,83.70
2022-10-03T22:05:24.761Z,83.70
2022-10-03T22:10:56.275Z,83.70
2022-10-03T22:13:26.398Z,83.80
2022-10-03T22:15:56.927Z,83.80
2022-10-03T22:18:26.308Z,83.70
2022-10-03T22:20:55.405Z,83.60
2022-10-03T22:23:29.276Z,83.60
2022-10-03T22:26:06.376Z,83.80
2022-10-03T22:28:41.928Z,83.90
2022-10-03T22:31:15.107Z,83.90
2022-10-03T22:33:49.378Z,83.80
2022-10-03T22:36:19.576Z,83.80
2022-10-03T22:38:47.972Z,83.80
2022-10-03T22:41:18.372Z,83.80
2022-10-03T22:43:47.399Z,83.80
2022-10-03T22:46:20.873Z,83.70
2022-10-03T22:48:50.503Z,83.70
2022-10-03T22:51:20.621Z,83.70
2022-10-03T22:53:50.328Z,83.70
2022-10-03T22:56:41.492Z,83.80
2022-10-03T22:59:11.489Z,83.80
2022-10-03T23:01:42.042Z,83.80
2022-10-03T23:04:13.397Z,83.70
2022-10-03T23:06:49.173Z,83.70
2022-10-03T23:09:21.992Z,83.60
2022-10-03T23:11:52.304Z,83.60
2022-10-03T23:14:23.572Z,83.70
2022-10-03T23:16:53.515Z,83.80
2022-10-03T23:19:35.608Z,83.70
2022-10-03T23:22:03.624Z,83.70
2022-10-03T23:24:33.674Z,83.50
2022-10-03T23:27:17.166Z,83.50
2022-10-03T23:29:45.014Z,83.50
2022-10-03T23:32:12.881Z,83.60
2022-10-03T23:34:49.017Z,83.70
2022-10-03T23:37:24.647Z,83.80
2022-10-03T23:40:07.344Z,84.00
2022-10-03T23:42:43.321Z,84.00
2022-10-03T23:45:13.783Z,83.90
2022-10-03T23:47:45.308Z,83.90
2022-10-03T23:50:17.312Z,83.90
2022-10-03T23:52:47.351Z,83.80
2022-10-03T23:55:19.679Z,83.90
2022-10-03T23:57:49.041Z,83.90
